createdAt,value
2016-08-17T00:00:04.002Z,48.64
2016-08-17T00:01:04.014Z,48.64
2016-08-17T00:02:04.065Z,48.54
2016-08-17T00:03:04.023Z,48.54
2016-08-17T00:04:04.027Z,48.74
2016-08-17T00:05:04.035Z,48.83
2016-08-17T00:06:04.042Z,48.44
2016-08-17T00:07:04.057Z,48.83
2016-08-17T00:08:03.342Z,48.54
2016-08-17T00:09:04.060Z,48.74
2016-08-17T00:10:03.361Z,48.74
2016-08-17T00:11:03.361Z,49.02
2016-08-17T00:12:03.373Z,48.83
2016-08-17T00:13:03.781Z,48.64
2016-08-17T00:14:04.739Z,49.02
2016-08-17T00:15:03.393Z,48.54
2016-08-17T00:16:03.398Z,48.54
2016-08-17T00:17:03.404Z,48.44
2016-08-17T00:18:04.120Z,48.64
2016-08-17T00:19:04.135Z,48.25
2016-08-17T00:20:03.424Z,48.44
2016-08-17T00:21:03.426Z,48.44
2016-08-17T00:22:03.434Z,48.35
2016-08-17T00:23:04.148Z,48.44
2016-08-17T00:24:03.800Z,48.44
2016-08-17T00:25:04.161Z,48.35
2016-08-17T00:26:04.170Z,48.35
2016-08-17T00:27:04.172Z,48.35
2016-08-17T00:28:04.179Z,48.35
2016-08-17T00:29:04.187Z,48.16
2016-08-17T00:30:04.193Z,48.25
2016-08-17T00:31:03.491Z,48.35
2016-08-17T00:32:04.205Z,48.35
2016-08-17T00:33:04.264Z,48.44
2016-08-17T00:34:03.511Z,48.44
2016-08-17T00:35:04.223Z,48.25
2016-08-17T00:36:04.228Z,48.25
2016-08-17T00:37:04.235Z,48.44
2016-08-17T00:38:04.249Z,48.35
2016-08-17T00:39:03.542Z,48.35
2016-08-17T00:40:04.258Z,48.25
2016-08-17T00:41:03.553Z,48.35
2016-08-17T00:42:03.559Z,48.35
2016-08-17T00:43:03.572Z,48.25
2016-08-17T00:44:04.283Z,48.16
2016-08-17T00:45:04.293Z,48.54
2016-08-17T00:46:04.299Z,48.44
2016-08-17T00:47:04.299Z,48.25
2016-08-17T00:48:04.306Z,48.35
2016-08-17T00:49:03.605Z,48.35
2016-08-17T00:50:03.608Z,48.35
2016-08-17T00:51:04.338Z,48.35
2016-08-17T00:52:03.623Z,48.44
2016-08-17T00:53:04.335Z,47.96
2016-08-17T00:54:03.640Z,48.54
2016-08-17T00:55:03.641Z,48.44
2016-08-17T00:56:03.699Z,48.35
2016-08-17T00:57:03.902Z,48.44
2016-08-17T00:58:03.658Z,48.44
2016-08-17T00:59:03.665Z,48.35
2016-08-17T01:00:03.672Z,48.06
2016-08-17T01:01:03.675Z,48.64
2016-08-17T01:02:04.391Z,48.64
2016-08-17T01:03:04.398Z,48.25
2016-08-17T01:04:04.404Z,48.44
2016-08-17T01:05:03.703Z,48.25
2016-08-17T01:06:04.414Z,48.83
2016-08-17T01:07:04.423Z,49.22
2016-08-17T01:08:04.427Z,49.02
2016-08-17T01:09:04.435Z,49.02
2016-08-17T01:10:03.731Z,49.02
2016-08-17T01:11:03.741Z,49.22
2016-08-17T01:12:03.752Z,49.22
2016-08-17T01:13:05.712Z,49.32
2016-08-17T01:14:04.470Z,49.22
2016-08-17T01:15:03.772Z,49.22
2016-08-17T01:16:04.480Z,49.22
2016-08-17T01:17:04.485Z,48.83
2016-08-17T01:18:04.492Z,49.22
2016-08-17T01:19:03.791Z,49.22
2016-08-17T01:20:04.508Z,49.22
2016-08-17T01:21:05.566Z,49.22
2016-08-17T01:22:04.518Z,49.22
2016-08-17T01:23:03.817Z,48.35
2016-08-17T01:24:03.823Z,48.74
2016-08-17T01:25:03.829Z,48.74
2016-08-17T01:26:04.544Z,48.54
2016-08-17T01:27:04.549Z,48.54
2016-08-17T01:28:03.846Z,48.44
2016-08-17T01:29:04.561Z,48.16
2016-08-17T01:30:03.860Z,48.25
2016-08-17T01:31:03.865Z,48.35
2016-08-17T01:32:03.872Z,48.44
2016-08-17T01:33:04.839Z,48.44
2016-08-17T01:34:04.599Z,48.25
2016-08-17T01:35:03.891Z,48.25
2016-08-17T01:36:03.897Z,48.35
2016-08-17T01:37:04.612Z,48.06
2016-08-17T01:38:03.912Z,48.35
2016-08-17T01:39:03.919Z,48.25
2016-08-17T01:40:03.922Z,48.44
2016-08-17T01:41:03.931Z,48.35
2016-08-17T01:42:04.644Z,48.35
2016-08-17T01:43:05.400Z,48.44
2016-08-17T01:44:03.948Z,48.44
2016-08-17T01:45:03.954Z,48.16
2016-08-17T01:46:04.667Z,48.54
2016-08-17T01:47:04.670Z,48.64
2016-08-17T01:48:03.972Z,48.16
2016-08-17T01:49:04.686Z,48.25
2016-08-17T01:50:04.692Z,47.96
2016-08-17T01:51:03.988Z,48.44
2016-08-17T01:52:03.996Z,48.64
2016-08-17T01:53:04.712Z,48.35
2016-08-17T01:54:05.266Z,48.74
2016-08-17T01:55:04.015Z,48.83
2016-08-17T01:56:04.020Z,48.74
2016-08-17T01:57:04.026Z,48.44
2016-08-17T01:58:04.036Z,48.93
2016-08-17T01:59:04.041Z,48.83
2016-08-17T02:00:04.096Z,48.54
2016-08-17T02:01:04.054Z,48.64
2016-08-17T02:02:04.061Z,48.74
2016-08-17T02:03:05.414Z,48.74
2016-08-17T02:04:04.071Z,48.83
2016-08-17T02:05:05.186Z,48.83
2016-08-17T02:06:04.792Z,48.54
2016-08-17T02:07:04.802Z,48.64
2016-08-17T02:08:04.097Z,48.74
2016-08-17T02:09:04.101Z,48.64
2016-08-17T02:10:04.818Z,48.74
2016-08-17T02:11:04.821Z,48.74
2016-08-17T02:12:04.119Z,49.22
2016-08-17T02:13:04.834Z,49.02
2016-08-17T02:14:05.395Z,49.12
2016-08-17T02:15:04.849Z,48.83
2016-08-17T02:16:05.246Z,49.12
2016-08-17T02:17:04.870Z,49.32
2016-08-17T02:18:04.867Z,49.12
2016-08-17T02:19:04.163Z,48.81
2016-08-17T02:20:04.222Z,49.19
2016-08-17T02:21:04.174Z,49.22
2016-08-17T02:22:04.891Z,49.02
2016-08-17T02:23:04.189Z,48.83
2016-08-17T02:24:04.196Z,49.12
2016-08-17T02:25:04.203Z,49.1
2016-08-17T02:26:04.918Z,49.12
2016-08-17T02:27:04.213Z,49.12
2016-08-17T02:28:04.221Z,49.12
2016-08-17T02:29:04.227Z,49.32
2016-08-17T02:30:04.233Z,49.02
2016-08-17T02:31:04.947Z,48.93
2016-08-17T02:32:04.952Z,49.02
2016-08-17T02:33:04.965Z,49.22
2016-08-17T02:34:04.264Z,49.22
2016-08-17T02:35:04.268Z,49.22
2016-08-17T02:36:05.954Z,49.22
2016-08-17T02:37:04.279Z,49.22
2016-08-17T02:38:04.283Z,49.22
2016-08-17T02:39:04.999Z,49.22
2016-08-17T02:40:05.000Z,49.02
2016-08-17T02:41:04.302Z,49.22
2016-08-17T02:42:04.309Z,49.22
2016-08-17T02:43:04.317Z,49.02
2016-08-17T02:44:05.029Z,49.12
2016-08-17T02:45:04.330Z,49.22
2016-08-17T02:46:05.041Z,49.12
2016-08-17T02:47:06.023Z,48.74
2016-08-17T02:48:05.054Z,49.12
2016-08-17T02:49:05.810Z,49.22
2016-08-17T02:50:04.364Z,49.22
2016-08-17T02:51:05.072Z,48.64
2016-08-17T02:52:05.086Z,49.02
2016-08-17T02:53:05.083Z,49.22
2016-08-17T02:54:05.089Z,49.22
2016-08-17T02:55:05.098Z,49.22
2016-08-17T02:56:04.395Z,49.22
2016-08-17T02:57:05.108Z,49.22
2016-08-17T02:58:05.816Z,49.22
2016-08-17T02:59:05.129Z,49.12
2016-08-17T03:00:05.630Z,48.74
2016-08-17T03:01:04.477Z,49.22
2016-08-17T03:02:04.435Z,49.12
2016-08-17T03:03:04.440Z,49.32
2016-08-17T03:04:05.152Z,49.02
2016-08-17T03:05:04.454Z,48.81
2016-08-17T03:06:04.459Z,49.12
2016-08-17T03:07:05.170Z,49.02
2016-08-17T03:08:05.177Z,49.22
2016-08-17T03:09:05.795Z,49.22
2016-08-17T03:10:04.480Z,49.22
2016-08-17T03:11:05.452Z,49.12
2016-08-17T03:12:04.495Z,49.12
2016-08-17T03:13:05.216Z,49.02
2016-08-17T03:14:19.385Z,49.1
2016-08-17T03:15:05.221Z,49.32
2016-08-17T03:16:05.226Z,49.29
2016-08-17T03:17:05.235Z,49.22
2016-08-17T03:18:05.242Z,49.02
2016-08-17T03:19:04.539Z,49.12
2016-08-17T03:20:06.377Z,48.54
2016-08-17T03:21:05.259Z,48.83
2016-08-17T03:22:05.267Z,48.83
2016-08-17T03:23:05.274Z,48.64
2016-08-17T03:24:04.572Z,49
2016-08-17T03:25:04.584Z,48.81
2016-08-17T03:26:05.290Z,49.48
2016-08-17T03:27:05.296Z,49.48
2016-08-17T03:28:05.302Z,48.81
2016-08-17T03:29:05.317Z,48.9
2016-08-17T03:30:05.321Z,48.9
2016-08-17T03:31:06.002Z,48.61
2016-08-17T03:32:05.327Z,49.19
2016-08-17T03:33:05.731Z,49
2016-08-17T03:34:04.634Z,49.58
2016-08-17T03:35:05.348Z,48.61
2016-08-17T03:36:05.353Z,48.9
2016-08-17T03:37:05.359Z,48.9
2016-08-17T03:38:05.365Z,48.9
2016-08-17T03:39:04.717Z,48.61
2016-08-17T03:40:04.675Z,48.52
2016-08-17T03:41:05.384Z,48.64
2016-08-17T03:42:05.867Z,48.52
2016-08-17T03:43:05.547Z,48.52
2016-08-17T03:44:05.549Z,48.64
2016-08-17T03:45:04.703Z,48.9
2016-08-17T03:46:04.709Z,48.71
2016-08-17T03:47:04.713Z,48.52
2016-08-17T03:48:05.430Z,48.71
2016-08-17T03:49:04.725Z,49.12
2016-08-17T03:50:04.733Z,49
2016-08-17T03:51:04.740Z,49.19
2016-08-17T03:52:04.743Z,48.54
2016-08-17T03:53:06.542Z,48.71
2016-08-17T03:54:05.463Z,48.81
2016-08-17T03:55:05.571Z,48.44
2016-08-17T03:56:05.476Z,49.1
2016-08-17T03:57:04.774Z,48.71
2016-08-17T03:58:05.486Z,49.1
2016-08-17T03:59:04.785Z,49.22
2016-08-17T04:00:05.552Z,48.81
2016-08-17T04:01:05.572Z,48.9
2016-08-17T04:02:04.805Z,48.83
2016-08-17T04:03:05.518Z,49.22
2016-08-17T04:04:06.374Z,48.93
2016-08-17T04:05:05.539Z,48.83
2016-08-17T04:06:05.231Z,49
2016-08-17T04:07:04.840Z,48.9
2016-08-17T04:08:04.842Z,48.54
2016-08-17T04:09:05.555Z,48.93
2016-08-17T04:10:05.562Z,48.71
2016-08-17T04:11:05.571Z,48.93
2016-08-17T04:12:05.574Z,49
2016-08-17T04:13:04.873Z,48.93
2016-08-17T04:14:05.589Z,48.93
2016-08-17T04:15:06.342Z,48.71
2016-08-17T04:16:05.599Z,49
2016-08-17T04:17:05.604Z,49.1
2016-08-17T04:18:05.608Z,49.12
2016-08-17T04:19:04.910Z,48.83
2016-08-17T04:20:04.916Z,48.81
2016-08-17T04:21:05.630Z,49
2016-08-17T04:22:05.730Z,49.1
2016-08-17T04:23:05.643Z,49.1
2016-08-17T04:24:05.700Z,48.64
2016-08-17T04:25:04.946Z,49.29
2016-08-17T04:26:05.804Z,48.42
2016-08-17T04:27:05.666Z,49.58
2016-08-17T04:28:05.674Z,49
2016-08-17T04:29:04.972Z,49.39
2016-08-17T04:30:05.737Z,49
2016-08-17T04:31:05.692Z,49.39
2016-08-17T04:32:05.698Z,48.71
2016-08-17T04:33:05.703Z,49.29
2016-08-17T04:34:05.717Z,49.29
2016-08-17T04:35:05.009Z,49.1
2016-08-17T04:36:05.721Z,48.71
2016-08-17T04:37:05.773Z,49.29
2016-08-17T04:38:05.027Z,49.1
2016-08-17T04:39:05.792Z,48.9
2016-08-17T04:40:05.039Z,48.71
2016-08-17T04:41:05.751Z,48.81
2016-08-17T04:42:05.760Z,48.71
2016-08-17T04:43:05.768Z,48.9
2016-08-17T04:44:05.772Z,49.41
2016-08-17T04:45:05.778Z,48.9
2016-08-17T04:46:05.079Z,48.81
2016-08-17T04:47:05.796Z,48.9
2016-08-17T04:48:05.797Z,48.61
2016-08-17T04:49:05.096Z,48.93
2016-08-17T04:50:05.810Z,48.54
2016-08-17T04:51:05.108Z,48.9
2016-08-17T04:52:05.824Z,48.74
2016-08-17T04:53:05.830Z,48.93
2016-08-17T04:54:05.128Z,48.42
2016-08-17T04:55:05.134Z,48.93
2016-08-17T04:56:05.846Z,48.54
2016-08-17T04:57:05.855Z,49.12
2016-08-17T04:58:05.857Z,49.1
2016-08-17T04:59:05.709Z,49.12
2016-08-17T05:00:05.162Z,49.02
2016-08-17T05:01:05.273Z,48.54
2016-08-17T05:02:05.885Z,48.81
2016-08-17T05:03:07.001Z,49.1
2016-08-17T05:04:05.189Z,49.12
2016-08-17T05:05:05.902Z,49.12
2016-08-17T05:06:05.917Z,49.12
2016-08-17T05:07:05.925Z,49.22
2016-08-17T05:08:05.922Z,49.22
2016-08-17T05:09:05.927Z,49.02
2016-08-17T05:10:06.586Z,48.93
2016-08-17T05:11:05.946Z,48.25
2016-08-17T05:12:05.488Z,48.83
2016-08-17T05:13:05.954Z,48.64
2016-08-17T05:14:05.304Z,48.64
2016-08-17T05:15:05.964Z,48.54
2016-08-17T05:16:05.972Z,48.54
2016-08-17T05:17:05.977Z,48.64
2016-08-17T05:18:05.278Z,48.74
2016-08-17T05:19:05.992Z,48.54
2016-08-17T05:20:06.001Z,48.25
2016-08-17T05:21:06.608Z,48.16
2016-08-17T05:22:05.304Z,48.54
2016-08-17T05:23:05.618Z,48.16
2016-08-17T05:24:05.322Z,48.25
2016-08-17T05:25:05.382Z,48.35
2016-08-17T05:26:06.045Z,48.35
2016-08-17T05:27:06.056Z,47.99
2016-08-17T05:28:05.365Z,47.99
2016-08-17T05:29:05.366Z,47.96
2016-08-17T05:30:05.372Z,48.16
2016-08-17T05:31:05.381Z,47.96
2016-08-17T05:32:06.291Z,48.25
2016-08-17T05:33:05.397Z,47.99
2016-08-17T05:34:06.115Z,48.08
2016-08-17T05:35:05.418Z,48.18
2016-08-17T05:36:05.424Z,48.08
2016-08-17T05:37:05.435Z,48.28
2016-08-17T05:38:05.443Z,48.18
2016-08-17T05:39:06.209Z,48.08
2016-08-17T05:40:06.168Z,48.06
2016-08-17T05:41:05.517Z,48.16
2016-08-17T05:42:05.525Z,47.99
2016-08-17T05:43:06.285Z,48.08
2016-08-17T05:44:06.197Z,47.99
2016-08-17T05:45:05.852Z,48.28
2016-08-17T05:46:05.509Z,47.99
2016-08-17T05:47:06.218Z,48.06
2016-08-17T05:48:05.519Z,48.25
2016-08-17T05:49:05.527Z,48.08
2016-08-17T05:50:05.534Z,48.28
2016-08-17T05:51:06.250Z,48.18
2016-08-17T05:52:05.549Z,47.8
2016-08-17T05:53:05.561Z,48.08
2016-08-17T05:54:07.225Z,47.99
2016-08-17T05:55:05.572Z,48.37
2016-08-17T05:56:06.287Z,48.08
2016-08-17T05:57:05.588Z,48.08
2016-08-17T05:58:06.302Z,48.47
2016-08-17T05:59:06.309Z,48.18
2016-08-17T06:00:05.611Z,48.28
2016-08-17T06:01:06.326Z,47.96
2016-08-17T06:02:05.625Z,48.08
2016-08-17T06:03:05.629Z,48.28
2016-08-17T06:04:06.345Z,48.08
2016-08-17T06:05:06.597Z,48.28
2016-08-17T06:06:06.364Z,48.06
2016-08-17T06:07:06.371Z,48.06
2016-08-17T06:08:06.377Z,47.96
2016-08-17T06:09:05.675Z,48.06
2016-08-17T06:10:05.679Z,47.96
2016-08-17T06:11:05.691Z,48.16
2016-08-17T06:12:06.404Z,48.06
2016-08-17T06:13:06.410Z,47.87
2016-08-17T06:14:05.710Z,48.28
2016-08-17T06:15:05.732Z,48.47
2016-08-17T06:16:06.626Z,48.18
2016-08-17T06:17:06.438Z,48.28
2016-08-17T06:18:06.445Z,48.37
2016-08-17T06:19:06.451Z,48.37
2016-08-17T06:20:06.459Z,47.8
2016-08-17T06:21:05.761Z,48.08
2016-08-17T06:22:06.474Z,48.08
2016-08-17T06:23:06.477Z,48.37
2016-08-17T06:24:06.488Z,48.28
2016-08-17T06:25:05.789Z,47.6
2016-08-17T06:26:06.502Z,47.53
2016-08-17T06:27:06.802Z,47.05
2016-08-17T06:28:06.520Z,46.66
2016-08-17T06:29:06.524Z,46.27
2016-08-17T06:30:06.531Z,45.62
2016-08-17T06:31:06.544Z,45.81
2016-08-17T06:32:06.544Z,45.42
2016-08-17T06:33:05.851Z,45.62
2016-08-17T06:34:05.859Z,45.91
2016-08-17T06:35:06.574Z,45.42
2016-08-17T06:36:05.876Z,45.06
2016-08-17T06:37:05.886Z,45.16
2016-08-17T06:38:07.352Z,44.77
2016-08-17T06:39:06.612Z,44.87
2016-08-17T06:40:06.670Z,44.67
2016-08-17T06:41:05.923Z,44.48
2016-08-17T06:42:06.692Z,44.5
2016-08-17T06:43:06.652Z,44.5
2016-08-17T06:44:06.660Z,44.4
2016-08-17T06:45:06.673Z,44.02
2016-08-17T06:46:05.977Z,44.02
2016-08-17T06:47:06.694Z,44.04
2016-08-17T06:48:06.047Z,44.04
2016-08-17T06:49:06.712Z,43.75
2016-08-17T06:50:06.018Z,43.65
2016-08-17T06:51:06.738Z,43.27
2016-08-17T06:52:06.749Z,43.17
2016-08-17T06:53:06.757Z,43.27
2016-08-17T06:54:06.771Z,42.88
2016-08-17T06:55:06.074Z,43.37
2016-08-17T06:56:06.083Z,42.88
2016-08-17T06:57:06.093Z,42.9
2016-08-17T06:58:06.105Z,42.9
2016-08-17T06:59:06.116Z,42.71
2016-08-17T07:00:07.293Z,43
2016-08-17T07:01:06.849Z,43.09
2016-08-17T07:02:06.856Z,42.51
2016-08-17T07:03:06.160Z,42.61
2016-08-17T07:04:06.222Z,42.51
2016-08-17T07:05:06.232Z,42.13
2016-08-17T07:06:06.197Z,42.8
2016-08-17T07:07:06.913Z,42.61
2016-08-17T07:08:06.972Z,42.51
2016-08-17T07:09:06.228Z,42.51
2016-08-17T07:10:06.952Z,42.8
2016-08-17T07:11:06.809Z,42.51
2016-08-17T07:12:06.261Z,42.22
2016-08-17T07:13:06.420Z,42.44
2016-08-17T07:15:06.295Z,42.44
2016-08-17T07:16:07.015Z,42.44
2016-08-17T07:17:07.024Z,42.54
2016-08-17T07:18:06.327Z,43
2016-08-17T07:19:07.042Z,44.06
2016-08-17T07:20:07.057Z,44.33
2016-08-17T07:21:07.064Z,44.79
2016-08-17T07:22:06.623Z,44.79
2016-08-17T07:23:06.382Z,45.18
2016-08-17T07:24:08.068Z,45.64
2016-08-17T07:25:06.398Z,45.45
2016-08-17T07:26:07.859Z,45.35
2016-08-17T07:27:07.127Z,45.25
2016-08-17T07:28:07.132Z,46.03
2016-08-17T07:29:07.138Z,45.91
2016-08-17T07:30:07.144Z,45.74
2016-08-17T07:31:06.497Z,46.03
2016-08-17T07:32:07.160Z,46.39
2016-08-17T07:33:07.170Z,46.39
2016-08-17T07:34:07.180Z,46.32
2016-08-17T07:35:06.479Z,46
2016-08-17T07:36:07.195Z,46.3
2016-08-17T07:37:07.752Z,46.3
2016-08-17T07:38:07.259Z,46.3
2016-08-17T07:39:07.224Z,46.3
2016-08-17T07:40:06.521Z,46.3
2016-08-17T07:41:06.527Z,46.58
2016-08-17T07:42:07.293Z,46.1
2016-08-17T07:43:06.545Z,46.39
2016-08-17T07:44:07.358Z,46.2
2016-08-17T07:45:07.265Z,46.1
2016-08-17T07:46:08.223Z,46.3
2016-08-17T07:47:07.288Z,46.2
2016-08-17T07:48:06.581Z,46.3
2016-08-17T07:49:07.348Z,46.1
2016-08-17T07:50:06.596Z,46.2
2016-08-17T07:51:06.608Z,46.39
2016-08-17T07:52:06.613Z,46.2
2016-08-17T07:53:06.619Z,46.39
2016-08-17T07:54:07.335Z,46.3
2016-08-17T07:55:07.342Z,46.39
2016-08-17T07:56:07.408Z,46.2
2016-08-17T07:57:08.210Z,46.88
2016-08-17T07:58:06.656Z,46.78
2016-08-17T07:59:06.664Z,48.32
2016-08-17T08:00:07.379Z,48.83
2016-08-17T08:01:06.676Z,49.55
2016-08-17T08:02:06.686Z,51.39
2016-08-17T08:03:07.440Z,52.13
2016-08-17T08:04:07.394Z,52.11
2016-08-17T08:05:06.692Z,52.33
2016-08-17T08:06:06.693Z,51.17
2016-08-17T08:07:07.412Z,51.26
2016-08-17T08:08:08.250Z,51.26
2016-08-17T08:09:07.404Z,51.92
2016-08-17T08:10:08.217Z,51.92
2016-08-17T08:11:06.705Z,52.87
2016-08-17T08:12:07.414Z,53.17
2016-08-17T08:13:07.415Z,52.2
2016-08-17T08:14:06.712Z,51.46
2016-08-17T08:15:06.715Z,51.36
2016-08-17T08:16:07.424Z,51.46
2016-08-17T08:17:07.724Z,52.23
2016-08-17T08:18:07.427Z,52.04
2016-08-17T08:19:07.429Z,52.01
2016-08-17T08:20:07.433Z,52.04
2016-08-17T08:21:08.553Z,52.23
2016-08-17T08:22:07.433Z,52.2
2016-08-17T08:23:06.731Z,51.84
2016-08-17T08:24:07.441Z,51.17
2016-08-17T08:25:07.450Z,51.56
2016-08-17T08:26:06.741Z,51.75
2016-08-17T08:27:06.791Z,51.82
2016-08-17T08:28:07.541Z,51.84
2016-08-17T08:29:07.452Z,51.72
2016-08-17T08:30:07.454Z,52.2
2016-08-17T08:31:07.455Z,52.2
2016-08-17T08:32:07.459Z,51.82
2016-08-17T08:33:06.800Z,51.82
2016-08-17T08:34:07.460Z,52.3
2016-08-17T08:35:07.459Z,50.95
2016-08-17T08:36:07.468Z,50.95
2016-08-17T08:37:07.466Z,50.49
2016-08-17T08:38:07.518Z,50.76
2016-08-17T08:39:07.864Z,51.24
2016-08-17T08:40:06.762Z,51.79
2016-08-17T08:41:07.532Z,51.6
2016-08-17T08:42:06.766Z,51.53
2016-08-17T08:43:06.772Z,51.53
2016-08-17T08:44:07.484Z,51.62
2016-08-17T08:45:06.769Z,52.01
2016-08-17T08:46:06.774Z,52.3
2016-08-17T08:47:07.478Z,51.79
2016-08-17T08:48:07.480Z,51.14
2016-08-17T08:49:07.481Z,49.79
2016-08-17T08:50:08.641Z,50.09
2016-08-17T08:51:07.483Z,50.09
2016-08-17T08:52:07.535Z,49.89
2016-08-17T08:53:06.779Z,50.47
2016-08-17T08:54:07.486Z,50.66
2016-08-17T08:55:07.491Z,50.09
2016-08-17T08:56:06.784Z,50.11
2016-08-17T08:57:07.543Z,50.11
2016-08-17T08:58:07.492Z,49.24
2016-08-17T08:59:07.495Z,48.59
2016-08-17T09:00:07.498Z,49.15
2016-08-17T09:01:08.013Z,49.05
2016-08-17T09:02:06.793Z,48.76
2016-08-17T09:03:07.747Z,48.76
2016-08-17T09:04:07.504Z,48.47
2016-08-17T09:05:06.799Z,48.38
2016-08-17T09:06:06.800Z,48.21
2016-08-17T09:07:06.800Z,48.21
2016-08-17T09:08:06.810Z,47.89
2016-08-17T09:09:06.802Z,47.99
2016-08-17T09:10:07.514Z,46.76
2016-08-17T09:11:07.569Z,46.28
2016-08-17T09:12:06.807Z,45.72
2016-08-17T09:13:06.811Z,45.43
2016-08-17T09:14:07.870Z,45.92
2016-08-17T09:15:06.817Z,45.53
2016-08-17T09:16:06.816Z,45.04
2016-08-17T09:17:07.523Z,45.04
2016-08-17T09:18:07.528Z,45.04
2016-08-17T09:19:07.532Z,44.85
2016-08-17T09:20:07.533Z,45.04
2016-08-17T09:21:07.536Z,44.46
2016-08-17T09:22:07.543Z,44.95
2016-08-17T09:23:08.415Z,44.76
2016-08-17T09:24:06.834Z,44.85
2016-08-17T09:25:06.835Z,44.66
2016-08-17T09:26:06.842Z,44.18
2016-08-17T09:27:07.548Z,44.2
2016-08-17T09:28:06.945Z,44.18
2016-08-17T09:29:07.599Z,43.79
2016-08-17T09:30:07.553Z,42.83
2016-08-17T09:31:07.552Z,42.93
2016-08-17T09:32:07.571Z,43.21
2016-08-17T09:33:07.559Z,43.31
2016-08-17T09:34:08.535Z,42.93
2016-08-17T09:35:06.854Z,43.24
2016-08-17T09:36:08.498Z,42.75
2016-08-17T09:37:07.564Z,43.04
2016-08-17T09:38:06.863Z,43.33
2016-08-17T09:39:07.624Z,43.24
2016-08-17T09:40:06.919Z,42.66
2016-08-17T09:41:06.874Z,42.39
2016-08-17T09:42:07.581Z,42.77
2016-08-17T09:43:06.876Z,42.29
2016-08-17T09:44:06.881Z,42.77
2016-08-17T09:45:08.562Z,42.58
2016-08-17T09:46:06.884Z,42.56
2016-08-17T09:47:08.398Z,42.68
2016-08-17T09:48:07.604Z,42.87
2016-08-17T09:49:07.650Z,42.87
2016-08-17T09:50:07.606Z,42.68
2016-08-17T09:51:06.901Z,42.39
2016-08-17T09:52:07.611Z,42.36
2016-08-17T09:53:06.907Z,42.18
2016-08-17T09:54:06.956Z,42.39
2016-08-17T09:55:07.620Z,42.18
2016-08-17T09:56:08.595Z,42.75
2016-08-17T09:57:07.620Z,42.29
2016-08-17T09:58:08.421Z,42.56
2016-08-17T09:59:07.678Z,42.87
2016-08-17T10:00:07.631Z,42.85
2016-08-17T10:01:06.925Z,43.06
2016-08-17T10:02:06.925Z,42.29
2016-08-17T10:03:06.977Z,42.77
2016-08-17T10:04:07.688Z,42.58
2016-08-17T10:05:07.640Z,42.29
2016-08-17T10:06:07.646Z,42.39
2016-08-17T10:07:06.941Z,41.42
2016-08-17T10:08:07.801Z,41.83
2016-08-17T10:09:06.948Z,41.42
2016-08-17T10:10:07.656Z,41.33
2016-08-17T10:11:07.707Z,41.63
2016-08-17T10:12:07.718Z,41.13
2016-08-17T10:13:07.662Z,41.13
2016-08-17T10:14:07.665Z,41.81
2016-08-17T10:15:07.672Z,41.71
2016-08-17T10:16:07.673Z,41.61
2016-08-17T10:17:07.685Z,40.26
2016-08-17T10:18:06.971Z,40.47
2016-08-17T10:19:06.975Z,40.19
2016-08-17T10:20:06.985Z,39.99
2016-08-17T10:21:07.688Z,40.09
2016-08-17T10:22:06.983Z,40.96
2016-08-17T10:23:06.984Z,39.7
2016-08-17T10:24:06.988Z,39.99
2016-08-17T10:25:06.991Z,37.87
2016-08-17T10:26:06.995Z,37.85
2016-08-17T10:27:07.712Z,38.62
2016-08-17T10:28:07.757Z,38.62
2016-08-17T10:29:07.652Z,38.16
2016-08-17T10:30:07.713Z,37.38
2016-08-17T10:31:07.009Z,38.53
2016-08-17T10:32:07.765Z,39.39
2016-08-17T10:33:07.012Z,39.11
2016-08-17T10:34:07.015Z,39.11
2016-08-17T10:35:07.016Z,39.49
2016-08-17T10:36:07.070Z,39.69
2016-08-17T10:37:07.730Z,39.69
2016-08-17T10:38:07.732Z,39.7
2016-08-17T10:39:07.024Z,39.8
2016-08-17T10:40:07.735Z,38.93
2016-08-17T10:41:07.032Z,39.22
2016-08-17T10:42:07.749Z,38.74
2016-08-17T10:43:07.039Z,38.76
2016-08-17T10:44:07.172Z,38.83
2016-08-17T10:45:07.044Z,38.25
2016-08-17T10:46:07.758Z,37.96
2016-08-17T10:47:07.052Z,38.06
2016-08-17T10:48:07.763Z,38.06
2016-08-17T10:49:07.055Z,38.06
2016-08-17T10:50:07.068Z,38.54
2016-08-17T10:51:08.121Z,38.35
2016-08-17T10:52:07.062Z,38.06
2016-08-17T10:53:07.773Z,38.35
2016-08-17T10:54:07.779Z,38.74
2016-08-17T10:55:07.075Z,38.25
2016-08-17T10:56:07.785Z,38.18
2016-08-17T10:57:07.081Z,38.45
2016-08-17T10:58:07.082Z,38.25
2016-08-17T10:59:07.795Z,37.58
2016-08-17T11:00:07.799Z,37.77
2016-08-17T11:01:07.095Z,37.29
2016-08-17T11:02:08.703Z,36.52
2016-08-17T11:03:07.807Z,37.58
2016-08-17T11:04:08.361Z,37.87
2016-08-17T11:05:07.112Z,37.87
2016-08-17T11:06:07.166Z,37.1
2016-08-17T11:07:07.826Z,37.67
2016-08-17T11:08:07.820Z,37.77
2016-08-17T11:09:07.820Z,36.61
2016-08-17T11:10:07.829Z,37.38
2016-08-17T11:11:07.835Z,37.77
2016-08-17T11:12:07.128Z,37.67
2016-08-17T11:13:08.990Z,37.79
2016-08-17T11:14:07.135Z,38.16
2016-08-17T11:15:08.701Z,37.87
2016-08-17T11:16:07.852Z,37.29
2016-08-17T11:17:07.855Z,38.28
2016-08-17T11:18:07.861Z,38.25
2016-08-17T11:19:07.164Z,37.79
2016-08-17T11:20:07.874Z,37
2016-08-17T11:21:07.878Z,36.8
2016-08-17T11:22:07.882Z,37.87
2016-08-17T11:23:07.183Z,37.58
2016-08-17T11:24:07.896Z,36.71
2016-08-17T11:25:07.951Z,37.48
2016-08-17T11:26:08.954Z,37.29
2016-08-17T11:27:07.911Z,36.05
2016-08-17T11:28:07.915Z,34.58
2016-08-17T11:29:07.919Z,35.06
2016-08-17T11:30:07.925Z,35.84
2016-08-17T11:31:07.225Z,36.42
2016-08-17T11:32:07.937Z,36.44
2016-08-17T11:33:07.236Z,37.96
2016-08-17T11:34:08.000Z,37.58
2016-08-17T11:35:07.953Z,36.22
2016-08-17T11:36:07.253Z,36.32
2016-08-17T11:37:07.257Z,35.45
2016-08-17T11:38:08.070Z,37.4
2016-08-17T11:39:07.267Z,37.21
2016-08-17T11:40:07.274Z,37.79
2016-08-17T11:41:07.987Z,35.06
2016-08-17T11:42:07.990Z,34.68
2016-08-17T11:43:08.041Z,35.57
2016-08-17T11:44:22.172Z,36.9
2016-08-17T11:45:08.005Z,36.53
2016-08-17T11:46:07.302Z,36.13
2016-08-17T11:47:08.017Z,35.36
2016-08-17T11:48:07.315Z,34.87
2016-08-17T11:49:07.319Z,35.16
2016-08-17T11:50:08.045Z,35.36
2016-08-17T11:51:07.331Z,34.78
2016-08-17T11:52:08.043Z,36.82
2016-08-17T11:53:07.341Z,36.82
2016-08-17T11:54:07.349Z,35.37
2016-08-17T11:55:07.354Z,36.15
2016-08-17T11:56:07.361Z,35.18
2016-08-17T11:57:07.365Z,35.95
2016-08-17T11:58:07.373Z,35.37
2016-08-17T11:59:08.982Z,35.45
2016-08-17T12:00:07.381Z,35.66
2016-08-17T12:01:07.390Z,35.94
2016-08-17T12:02:07.393Z,36.42
2016-08-17T12:03:08.105Z,36.22
2016-08-17T12:04:07.401Z,35.64
2016-08-17T12:05:08.166Z,36.22
2016-08-17T12:06:08.123Z,36.32
2016-08-17T12:07:08.179Z,35.95
2016-08-17T12:08:07.526Z,36.82
2016-08-17T12:09:07.432Z,36.8
2016-08-17T12:10:07.438Z,36.52
2016-08-17T12:11:08.148Z,36.42
2016-08-17T12:12:07.445Z,36.8
2016-08-17T12:13:07.508Z,35.74
2016-08-17T12:14:08.177Z,35.74
2016-08-17T12:15:07.462Z,36.32
2016-08-17T12:16:08.173Z,36.82
2016-08-17T12:17:07.527Z,36.42
2016-08-17T12:18:08.233Z,35.36
2016-08-17T12:19:08.439Z,36.44
2016-08-17T12:20:07.487Z,36.52
2016-08-17T12:21:08.201Z,36.42
2016-08-17T12:22:08.207Z,35.64
2016-08-17T12:23:08.208Z,36.42
2016-08-17T12:24:08.216Z,35.36
2016-08-17T12:25:07.564Z,34.7
2016-08-17T12:26:07.519Z,36.42
2016-08-17T12:27:07.525Z,34.97
2016-08-17T12:28:08.238Z,34.78
2016-08-17T12:29:08.245Z,35.55
2016-08-17T12:30:08.242Z,35.95
2016-08-17T12:31:07.547Z,35.64
2016-08-17T12:32:08.307Z,35.45
2016-08-17T12:33:08.264Z,36.15
2016-08-17T12:34:08.270Z,35.94
2016-08-17T12:35:07.579Z,34.29
2016-08-17T12:36:08.287Z,34.58
2016-08-17T12:37:08.334Z,34.58
2016-08-17T12:38:07.600Z,34.58
2016-08-17T12:39:08.294Z,34.58
2016-08-17T12:40:07.639Z,34.2
2016-08-17T12:41:09.402Z,33.92
2016-08-17T12:42:08.305Z,33.63
2016-08-17T12:43:08.361Z,34.12
2016-08-17T12:44:08.312Z,34.41
2016-08-17T12:45:08.312Z,33.63
2016-08-17T12:46:07.759Z,33.63
2016-08-17T12:47:08.320Z,33.83
2016-08-17T12:48:08.329Z,33.25
2016-08-17T12:49:07.623Z,33.42
2016-08-17T12:50:08.328Z,33.54
2016-08-17T12:51:08.331Z,32.84
2016-08-17T12:52:09.038Z,32.75
2016-08-17T12:53:07.627Z,32.18
2016-08-17T12:54:08.752Z,32.57
2016-08-17T12:55:07.634Z,32.57
2016-08-17T12:56:07.635Z,31.99
2016-08-17T12:57:08.344Z,32.18